sensor_id;sensor_type;location;lat;lon;timestamp;pressure;altitude;pressure_sealevel;temperature;humidity
84863;BME280;75117;43.224;76.776;2024-03-02T00:00:07;92738.97;;;-8.27;79.31
84863;BME280;75117;43.224;76.776;2024-03-02T00:00:26;92777.78;;;-8.06;79.15
84863;BME280;75117;43.224;76.776;2024-03-02T00:00:39;92772.09;;;-8.08;79.45
84863;BME280;75117;43.224;76.776;2024-03-02T00:00:51;92745.34;;;-8.29;79.76
84863;BME280;75117;43.224;76.776;2024-03-02T00:01:05;92780.59;;;-8.08;78.58
84863;BME280;75117;43.224;76.776;2024-03-02T00:01:18;92783.38;;;-8.09;78.83
84863;BME280;75117;43.224;76.776;2024-03-02T00:01:30;92777.38;;;-8.15;78.89
84863;BME280;75117;43.224;76.776;2024-03-02T00:01:44;92781.81;;;-8.10;78.84
84863;BME280;75117;43.224;76.776;2024-03-02T00:01:56;92780.81;;;-8.09;78.52
84863;BME280;75117;43.224;76.776;2024-03-02T00:02:08;92781.03;;;-8.11;78.96
84863;BME280;75117;43.224;76.776;2024-03-02T00:02:21;92776.47;;;-8.09;78.83
84863;BME280;75117;43.224;76.776;2024-03-02T00:02:33;92778.91;;;-8.14;78.98
84863;BME280;75117;43.224;76.776;2024-03-02T00:02:47;92773.78;;;-8.14;79.14
84863;BME280;75117;43.224;76.776;2024-03-02T00:02:59;92788.28;;;-8.08;79.54
84863;BME280;75117;43.224;76.776;2024-03-02T00:03:12;92780.25;;;-8.11;79.29
84863;BME280;75117;43.224;76.776;2024-03-02T00:03:26;92741.44;;;-8.32;79.65
84863;BME280;75117;43.224;76.776;2024-03-02T00:03:38;92776.25;;;-8.07;79.17
84863;BME280;75117;43.224;76.776;2024-03-02T00:03:51;92783.94;;;-8.07;80.41
84863;BME280;75117;43.224;76.776;2024-03-02T00:04:07;92782.69;;;-8.05;79.64
84863;BME280;75117;43.224;76.776;2024-03-02T00:04:20;92776.25;;;-8.07;79.33
84863;BME280;75117;43.224;76.776;2024-03-02T00:04:32;92784.25;;;-8.04;79.97
84863;BME280;75117;43.224;76.776;2024-03-02T00:04:45;92782.47;;;-8.03;79.69
84863;BME280;75117;43.224;76.776;2024-03-02T00:04:57;92788.13;;;-8.01;80.04
84863;BME280;75117;43.224;76.776;2024-03-02T00:05:15;92783.00;;;-8.01;80.33
84863;BME280;75117;43.224;76.776;2024-03-02T00:05:28;92786.16;;;-7.99;79.63
84863;BME280;75117;43.224;76.776;2024-03-02T00:05:40;92782.78;;;-8.00;79.63
84863;BME280;75117;43.224;76.776;2024-03-02T00:05:52;92777.44;;;-7.98;79.24
84863;BME280;75117;43.224;76.776;2024-03-02T00:06:06;92780.22;;;-8.00;78.99
84863;BME280;75117;43.224;76.776;2024-03-02T00:06:22;92783.34;;;-7.98;79.09
84863;BME280;75117;43.224;76.776;2024-03-02T00:06:35;92747.09;;;-8.18;79.56
84863;BME280;75117;43.224;76.776;2024-03-02T00:06:53;92785.13;;;-7.98;80.03
84863;BME280;75117;43.224;76.776;2024-03-02T00:07:08;92781.78;;;-7.99;79.69
84863;BME280;75117;43.224;76.776;2024-03-02T00:07:21;92780.22;;;-8.00;79.26
84863;BME280;75117;43.224;76.776;2024-03-02T00:07:33;92797.16;;;-7.99;78.41
84863;BME280;75117;43.224;76.776;2024-03-02T00:07:52;92784.34;;;-7.99;79.16
84863;BME280;75117;43.224;76.776;2024-03-02T00:08:06;92786.91;;;-7.99;79.07
84863;BME280;75117;43.224;76.776;2024-03-02T00:08:24;92787.91;;;-8.00;78.33
84863;BME280;75117;43.224;76.776;2024-03-02T00:08:37;92779.91;;;-8.03;78.22
84863;BME280;75117;43.224;76.776;2024-03-02T00:08:50;92784.56;;;-8.00;78.61
84863;BME280;75117;43.224;76.776;2024-03-02T00:09:03;92769.53;;;-8.08;78.30
84863;BME280;75117;43.224;76.776;2024-03-02T00:09:15;92781.47;;;-8.02;78.47
84863;BME280;75117;43.224;76.776;2024-03-02T00:09:27;92759.13;;;-8.19;77.95
84863;BME280;75117;43.224;76.776;2024-03-02T00:09:40;92787.59;;;-8.03;78.20
84863;BME280;75117;43.224;76.776;2024-03-02T00:09:54;92772.69;;;-8.06;78.54
84863;BME280;75117;43.224;76.776;2024-03-02T00:10:09;92790.38;;;-8.05;78.26
84863;BME280;75117;43.224;76.776;2024-03-02T00:10:27;92755.16;;;-8.26;78.22
84863;BME280;75117;43.224;76.776;2024-03-02T00:10:43;92759.03;;;-8.24;78.27
84863;BME280;75117;43.224;76.776;2024-03-02T00:10:59;92784.91;;;-8.08;79.18
84863;BME280;75117;43.224;76.776;2024-03-02T00:11:13;92785.91;;;-8.09;78.83
84863;BME280;75117;43.224;76.776;2024-03-02T00:11:27;92779.25;;;-8.10;77.74
84863;BME280;75117;43.224;76.776;2024-03-02T00:11:39;92777.69;;;-8.11;77.94
84863;BME280;75117;43.224;76.776;2024-03-02T00:11:52;92780.69;;;-8.14;78.38
84863;BME280;75117;43.224;76.776;2024-03-02T00:12:05;92787.38;;;-8.13;78.69
84863;BME280;75117;43.224;76.776;2024-03-02T00:12:17;92775.25;;;-8.18;78.91
84863;BME280;75117;43.224;76.776;2024-03-02T00:12:30;92782.72;;;-8.17;78.34
84863;BME280;75117;43.224;76.776;2024-03-02T00:12:42;92780.94;;;-8.16;78.71
84863;BME280;75117;43.224;76.776;2024-03-02T00:12:56;92783.69;;;-8.18;78.12
84863;BME280;75117;43.224;76.776;2024-03-02T00:13:12;92781.94;;;-8.17;78.24
84863;BME280;75117;43.224;76.776;2024-03-02T00:13:25;92782.16;;;-8.19;78.69
84863;BME280;75117;43.224;76.776;2024-03-02T00:13:37;92777.03;;;-8.19;79.01
84863;BME280;75117;43.224;76.776;2024-03-02T00:13:53;92787.06;;;-8.17;79.48
84863;BME280;75117;43.224;76.776;2024-03-02T00:14:06;92781.94;;;-8.17;78.64
84863;BME280;75117;43.224;76.776;2024-03-02T00:14:18;92780.84;;;-8.21;79.07
84863;BME280;75117;43.224;76.776;2024-03-02T00:14:31;92782.16;;;-8.19;79.21
84863;BME280;75117;43.224;76.776;2024-03-02T00:14:43;92781.94;;;-8.17;79.51
84863;BME280;75117;43.224;76.776;2024-03-02T00:14:56;92783.50;;;-8.16;79.72
84863;BME280;75117;43.224;76.776;2024-03-02T00:15:53;92787.38;;;-8.13;79.82
84863;BME280;75117;43.224;76.776;2024-03-02T00:16:07;92784.81;;;-8.13;79.51
84863;BME280;75117;43.224;76.776;2024-03-02T00:16:19;92783.03;;;-8.13;79.72
84863;BME280;75117;43.224;76.776;2024-03-02T00:16:32;92751.16;;;-8.34;79.88
84863;BME280;75117;43.224;76.776;2024-03-02T00:16:44;92786.59;;;-8.14;79.83
84863;BME280;75117;43.224;76.776;2024-03-02T00:16:57;92780.38;;;-8.18;79.21
84863;BME280;75117;43.224;76.776;2024-03-02T00:17:24;92787.38;;;-8.13;79.19
84863;BME280;75117;43.224;76.776;2024-03-02T00:17:36;92790.72;;;-8.13;79.13
84863;BME280;75117;43.224;76.776;2024-03-02T00:17:55;92758.91;;;-8.29;79.52
84863;BME280;75117;43.224;76.776;2024-03-02T00:18:10;92752.47;;;-8.31;79.90
84863;BME280;75117;43.224;76.776;2024-03-02T00:18:34;92786.41;;;-8.12;80.23
84863;BME280;75117;43.224;76.776;2024-03-02T00:18:47;92754.81;;;-8.30;79.34
84863;BME280;75117;43.224;76.776;2024-03-02T00:19:05;92784.81;;;-8.13;80.01
84863;BME280;75117;43.224;76.776;2024-03-02T00:19:19;92780.94;;;-8.16;79.53
84863;BME280;75117;43.224;76.776;2024-03-02T00:19:31;92797.84;;;-8.15;78.93
84863;BME280;75117;43.224;76.776;2024-03-02T00:19:44;92793.16;;;-8.18;79.10
84863;BME280;75117;43.224;76.776;2024-03-02T00:19:56;92755.41;;;-8.39;78.46
84863;BME280;75117;43.224;76.776;2024-03-02T00:20:09;92789.06;;;-8.19;79.07
84863;BME280;75117;43.224;76.776;2024-03-02T00:20:22;92781.28;;;-8.24;78.42
84863;BME280;75117;43.224;76.776;2024-03-02T00:20:35;92790.31;;;-8.22;78.70
84863;BME280;75117;43.224;76.776;2024-03-02T00:20:47;92773.25;;;-8.28;78.96
84863;BME280;75117;43.224;76.776;2024-03-02T00:21:00;92788.97;;;-8.24;78.92
84863;BME280;75117;43.224;76.776;2024-03-02T00:21:14;92783.50;;;-8.28;79.37
84863;BME280;75117;43.224;76.776;2024-03-02T00:21:29;92759.88;;;-8.47;78.59
84863;BME280;75117;43.224;76.776;2024-03-02T00:21:42;92794.53;;;-8.27;78.77
84863;BME280;75117;43.224;76.776;2024-03-02T00:21:55;92785.28;;;-8.28;78.90
84863;BME280;75117;43.224;76.776;2024-03-02T00:22:07;92797.06;;;-8.27;78.92
84863;BME280;75117;43.224;76.776;2024-03-02T00:22:20;92803.44;;;-8.30;79.34
84863;BME280;75117;43.224;76.776;2024-03-02T00:22:35;92791.84;;;-8.32;79.47
84863;BME280;75117;43.224;76.776;2024-03-02T00:22:50;92786.75;;;-8.32;79.85
84863;BME280;75117;43.224;76.776;2024-03-02T00:23:04;92793.75;;;-8.28;79.62
84863;BME280;75117;43.224;76.776;2024-03-02T00:23:17;92795.75;;;-8.30;79.69
84863;BME280;75117;43.224;76.776;2024-03-02T00:23:32;92798.09;;;-8.28;79.92
84863;BME280;75117;43.224;76.776;2024-03-02T00:23:45;92791.66;;;-8.31;79.61
84863;BME280;75117;43.224;76.776;2024-03-02T00:23:58;92797.06;;;-8.27;80.03
84863;BME280;75117;43.224;76.776;2024-03-02T00:24:24;92802.78;;;-8.25;79.82
84863;BME280;75117;43.224;76.776;2024-03-02T00:24:39;92797.66;;;-8.25;80.21
84863;BME280;75117;43.224;76.776;2024-03-02T00:24:51;92764.75;;;-8.45;80.13
84863;BME280;75117;43.224;76.776;2024-03-02T00:25:04;92799.19;;;-8.24;80.78
84863;BME280;75117;43.224;76.776;2024-03-02T00:25:17;92802.00;;;-8.26;79.73
84863;BME280;75117;43.224;76.776;2024-03-02T00:25:40;92803.09;;;-8.22;80.44
84863;BME280;75117;43.224;76.776;2024-03-02T00:25:55;92805.66;;;-8.22;80.20
84863;BME280;75117;43.224;76.776;2024-03-02T00:26:11;92802.31;;;-8.22;80.73
84863;BME280;75117;43.224;76.776;2024-03-02T00:26:24;92802.00;;;-8.26;80.27
84863;BME280;75117;43.224;76.776;2024-03-02T00:26:37;92804.84;;;-8.22;79.73
84863;BME280;75117;43.224;76.776;2024-03-02T00:26:50;92801.31;;;-8.21;79.84
84863;BME280;75117;43.224;76.776;2024-03-02T00:27:04;92798.75;;;-8.21;80.95
84863;BME280;75117;43.224;76.776;2024-03-02T00:27:18;92782.78;;;-8.40;80.52
84863;BME280;75117;43.224;76.776;2024-03-02T00:27:31;92800.75;;;-8.23;80.72
84863;BME280;75117;43.224;76.776;2024-03-02T00:27:47;92805.19;;;-8.19;80.57
84863;BME280;75117;43.224;76.776;2024-03-02T00:28:04;92804.66;;;-8.21;80.25
84863;BME280;75117;43.224;76.776;2024-03-02T00:28:27;92800.41;;;-8.15;80.63
84863;BME280;75117;43.224;76.776;2024-03-02T00:28:40;92810.13;;;-8.17;80.45
84863;BME280;75117;43.224;76.776;2024-03-02T00:28:56;92770.06;;;-8.35;80.57
84863;BME280;75117;43.224;76.776;2024-03-02T00:29:15;92812.19;;;-8.14;80.40
84863;BME280;75117;43.224;76.776;2024-03-02T00:29:29;92807.31;;;-8.15;80.38
84863;BME280;75117;43.224;76.776;2024-03-02T00:29:41;92800.94;;;-8.13;81.04
84863;BME280;75117;43.224;76.776;2024-03-02T00:29:56;92812.97;;;-8.13;80.31
84863;BME280;75117;43.224;76.776;2024-03-02T00:30:55;92811.75;;;-8.11;79.81
84863;BME280;75117;43.224;76.776;2024-03-02T00:31:12;92809.63;;;-8.14;80.41
84863;BME280;75117;43.224;76.776;2024-03-02T00:31:25;92811.53;;;-8.09;80.51
84863;BME280;75117;43.224;76.776;2024-03-02T00:31:39;92825.09;;;-8.09;80.50
84863;BME280;75117;43.224;76.776;2024-03-02T00:31:51;92807.97;;;-8.08;79.73
84863;BME280;75117;43.224;76.776;2024-03-02T00:32:13;92817.22;;;-8.07;80.09
84863;BME280;75117;43.224;76.776;2024-03-02T00:32:29;92817.13;;;-8.12;80.15
84863;BME280;75117;43.224;76.776;2024-03-02T00:32:43;92815.09;;;-8.10;80.40
84863;BME280;75117;43.224;76.776;2024-03-02T00:32:55;92817.66;;;-8.10;80.43
84863;BME280;75117;43.224;76.776;2024-03-02T00:33:08;92815.19;;;-8.05;80.00
84863;BME280;75117;43.224;76.776;2024-03-02T00:33:21;92781.72;;;-8.27;79.78
84863;BME280;75117;43.224;76.776;2024-03-02T00:33:50;92818.31;;;-8.03;80.64
84863;BME280;75117;43.224;76.776;2024-03-02T00:34:05;92813.41;;;-8.05;79.46
84863;BME280;75117;43.224;76.776;2024-03-02T00:34:18;92820.66;;;-8.02;80.45
84863;BME280;75117;43.224;76.776;2024-03-02T00:34:30;92825.53;;;-8.00;79.50
84863;BME280;75117;43.224;76.776;2024-03-02T00:34:43;92828.88;;;-8.00;79.69
84863;BME280;75117;43.224;76.776;2024-03-02T00:34:55;92817.66;;;-7.99;80.54
84863;BME280;75117;43.224;76.776;2024-03-02T00:35:08;92824.31;;;-7.98;80.19
84863;BME280;75117;43.224;76.776;2024-03-02T00:35:23;92819.63;;;-8.01;80.23
84863;BME280;75117;43.224;76.776;2024-03-02T00:35:35;92821.88;;;-8.04;80.32
84863;BME280;75117;43.224;76.776;2024-03-02T00:35:49;92814.31;;;-7.99;79.53
84863;BME280;75117;43.224;76.776;2024-03-02T00:36:03;92816.63;;;-7.98;79.92
84863;BME280;75117;43.224;76.776;2024-03-02T00:36:21;92811.19;;;-8.01;79.83
84863;BME280;75117;43.224;76.776;2024-03-02T00:36:34;92788.38;;;-8.14;80.32
84863;BME280;75117;43.224;76.776;2024-03-02T00:36:46;92815.09;;;-7.99;79.67
84863;BME280;75117;43.224;76.776;2024-03-02T00:36:59;92824.41;;;-7.93;79.88
84863;BME280;75117;43.224;76.776;2024-03-02T00:37:12;92824.09;;;-7.96;79.63
84863;BME280;75117;43.224;76.776;2024-03-02T00:37:24;92829.53;;;-7.93;79.51
84863;BME280;75117;43.224;76.776;2024-03-02T00:37:37;92814.19;;;-7.93;79.11
84863;BME280;75117;43.224;76.776;2024-03-02T00:37:49;92818.53;;;-7.93;79.78
84863;BME280;75117;43.224;76.776;2024-03-02T00:38:06;92821.84;;;-7.93;79.02
84863;BME280;75117;43.224;76.776;2024-03-02T00:38:19;92790.94;;;-8.14;79.20
84863;BME280;75117;43.224;76.776;2024-03-02T00:38:32;92812.53;;;-7.99;78.97
84863;BME280;75117;43.224;76.776;2024-03-02T00:38:49;92814.53;;;-8.01;79.20
84863;BME280;75117;43.224;76.776;2024-03-02T00:39:02;92830.22;;;-7.97;78.74
84863;BME280;75117;43.224;76.776;2024-03-02T00:39:15;92819.75;;;-7.96;78.96
84863;BME280;75117;43.224;76.776;2024-03-02T00:39:29;92823.31;;;-7.97;79.30
84863;BME280;75117;43.224;76.776;2024-03-02T00:39:42;92819.63;;;-8.01;79.57
84863;BME280;75117;43.224;76.776;2024-03-02T00:39:55;92822.53;;;-7.97;78.50
84863;BME280;75117;43.224;76.776;2024-03-02T00:40:09;92821.75;;;-7.98;79.24
84863;BME280;75117;43.224;76.776;2024-03-02T00:40:27;92820.41;;;-8.00;78.46
84863;BME280;75117;43.224;76.776;2024-03-02T00:40:44;92824.31;;;-7.98;78.57
84863;BME280;75117;43.224;76.776;2024-03-02T00:41:01;92835.56;;;-7.99;78.46
84863;BME280;75117;43.224;76.776;2024-03-02T00:41:31;92822.78;;;-7.99;78.44
84863;BME280;75117;43.224;76.776;2024-03-02T00:41:44;92822.00;;;-7.99;79.55
84863;BME280;75117;43.224;76.776;2024-03-02T00:41:57;92820.97;;;-7.98;78.94
84863;BME280;75117;43.224;76.776;2024-03-02T00:42:11;92814.19;;;-8.04;79.05
84863;BME280;75117;43.224;76.776;2024-03-02T00:42:24;92821.75;;;-7.98;79.01
84863;BME280;75117;43.224;76.776;2024-03-02T00:42:36;92818.44;;;-7.98;79.31
84863;BME280;75117;43.224;76.776;2024-03-02T00:42:49;92818.19;;;-7.97;78.54
84863;BME280;75117;43.224;76.776;2024-03-02T00:43:02;92814.53;;;-8.01;79.36
84863;BME280;75117;43.224;76.776;2024-03-02T00:43:43;92822.09;;;-7.94;78.09
84863;BME280;75117;43.224;76.776;2024-03-02T00:44:13;92831.31;;;-7.93;78.89
84863;BME280;75117;43.224;76.776;2024-03-02T00:44:25;92820.84;;;-7.92;78.99
84863;BME280;75117;43.224;76.776;2024-03-02T00:44:38;92822.09;;;-7.94;78.77
84863;BME280;75117;43.224;76.776;2024-03-02T00:44:50;92830.09;;;-7.91;78.58
84863;BME280;75117;43.224;76.776;2024-03-02T00:45:07;92828.31;;;-7.90;79.48
84863;BME280;75117;43.224;76.776;2024-03-02T00:45:20;92819.84;;;-7.91;78.12
84863;BME280;75117;43.224;76.776;2024-03-02T00:45:32;92822.97;;;-7.88;78.20
84863;BME280;75117;43.224;76.776;2024-03-02T00:45:45;92820.84;;;-7.92;78.68
84863;BME280;75117;43.224;76.776;2024-03-02T00:45:57;92830.88;;;-7.90;78.88
84863;BME280;75117;43.224;76.776;2024-03-02T00:46:16;92819.63;;;-7.89;78.82
84863;BME280;75117;43.224;76.776;2024-03-02T00:46:38;92792.06;;;-8.10;78.87
84863;BME280;75117;43.224;76.776;2024-03-02T00:46:51;92820.41;;;-7.88;78.98
84863;BME280;75117;43.224;76.776;2024-03-02T00:47:04;92822.19;;;-7.89;79.12
84863;BME280;75117;43.224;76.776;2024-03-02T00:47:16;92826.31;;;-7.88;78.77
84863;BME280;75117;43.224;76.776;2024-03-02T00:47:29;92820.63;;;-7.90;78.92
84863;BME280;75117;43.224;76.776;2024-03-02T00:47:41;92822.41;;;-7.91;78.87
84863;BME280;75117;43.224;76.776;2024-03-02T00:47:54;92821.19;;;-7.88;78.42
84863;BME280;75117;43.224;76.776;2024-03-02T00:48:06;92828.63;;;-7.86;79.36
84863;BME280;75117;43.224;76.776;2024-03-02T00:48:20;92819.41;;;-7.87;79.17
84863;BME280;75117;43.224;76.776;2024-03-02T00:48:33;92817.28;;;-7.91;79.02
84863;BME280;75117;43.224;76.776;2024-03-02T00:48:55;92829.41;;;-7.86;79.63
84863;BME280;75117;43.224;76.776;2024-03-02T00:49:31;92825.28;;;-7.87;78.60
84863;BME280;75117;43.224;76.776;2024-03-02T00:49:46;92816.41;;;-7.96;78.31
84863;BME280;75117;43.224;76.776;2024-03-02T00:49:59;92824.75;;;-7.89;78.60
84863;BME280;75117;43.224;76.776;2024-03-02T00:50:13;92818.84;;;-7.89;78.75
84863;BME280;75117;43.224;76.776;2024-03-02T00:50:26;92820.06;;;-7.92;78.13
84863;BME280;75117;43.224;76.776;2024-03-02T00:50:38;92827.53;;;-7.91;78.81
84863;BME280;75117;43.224;76.776;2024-03-02T00:50:53;92820.84;;;-7.92;78.73
84863;BME280;75117;43.224;76.776;2024-03-02T00:51:06;92824.41;;;-7.93;78.34
84863;BME280;75117;43.224;76.776;2024-03-02T00:51:18;92833.44;;;-7.90;78.33
84863;BME280;75117;43.224;76.776;2024-03-02T00:51:33;92824.97;;;-7.91;78.28
84863;BME280;75117;43.224;76.776;2024-03-02T00:51:47;92825.97;;;-7.92;78.04
84863;BME280;75117;43.224;76.776;2024-03-02T00:52:02;92817.28;;;-7.91;78.79
84863;BME280;75117;43.224;76.776;2024-03-02T00:52:15;92829.31;;;-7.91;78.65
84863;BME280;75117;43.224;76.776;2024-03-02T00:52:28;92827.53;;;-7.91;78.92
84863;BME280;75117;43.224;76.776;2024-03-02T00:52:41;92822.09;;;-7.94;78.63
84863;BME280;75117;43.224;76.776;2024-03-02T00:52:53;92818.53;;;-7.93;78.45
84863;BME280;75117;43.224;76.776;2024-03-02T00:53:10;92820.84;;;-7.92;79.09
84863;BME280;75117;43.224;76.776;2024-03-02T00:53:26;92818.19;;;-7.97;78.79
84863;BME280;75117;43.224;76.776;2024-03-02T00:53:38;92814.94;;;-7.92;79.11
84863;BME280;75117;43.224;76.776;2024-03-02T00:53:52;92818.28;;;-7.92;78.78
84863;BME280;75117;43.224;76.776;2024-03-02T00:54:08;92818.75;;;-7.95;79.18
84863;BME280;75117;43.224;76.776;2024-03-02T00:54:25;92813.41;;;-7.93;78.60
84863;BME280;75117;43.224;76.776;2024-03-02T00:54:38;92818.28;;;-7.92;79.45
84863;BME280;75117;43.224;76.776;2024-03-02T00:54:50;92814.94;;;-7.92;78.95
84863;BME280;75117;43.224;76.776;2024-03-02T00:55:03;92817.50;;;-7.92;79.32
84863;BME280;75117;43.224;76.776;2024-03-02T00:55:18;92822.63;;;-7.92;78.07
84863;BME280;75117;43.224;76.776;2024-03-02T00:55:30;92827.75;;;-7.92;79.49
84863;BME280;75117;43.224;76.776;2024-03-02T00:55:43;92808.50;;;-7.95;78.62
84863;BME280;75117;43.224;76.776;2024-03-02T00:55:59;92818.28;;;-7.92;79.56
84863;BME280;75117;43.224;76.776;2024-03-02T00:56:13;92826.75;;;-7.91;78.82
84863;BME280;75117;43.224;76.776;2024-03-02T00:56:26;92819.06;;;-7.91;79.02
84863;BME280;75117;43.224;76.776;2024-03-02T00:56:41;92823.19;;;-7.90;79.73
84863;BME280;75117;43.224;76.776;2024-03-02T00:56:54;92833.44;;;-7.90;79.29
84863;BME280;75117;43.224;76.776;2024-03-02T00:57:10;92819.84;;;-7.91;78.41
84863;BME280;75117;43.224;76.776;2024-03-02T00:57:24;92820.31;;;-7.94;78.94
84863;BME280;75117;43.224;76.776;2024-03-02T00:57:38;92824.19;;;-7.91;78.11
84863;BME280;75117;43.224;76.776;2024-03-02T00:57:50;92825.97;;;-7.92;79.12
84863;BME280;75117;43.224;76.776;2024-03-02T00:58:03;92823.88;;;-7.95;78.67
84863;BME280;75117;43.224;76.776;2024-03-02T00:58:15;92797.19;;;-8.10;79.24
84863;BME280;75117;43.224;76.776;2024-03-02T00:58:28;92829.09;;;-7.89;78.96
84863;BME280;75117;43.224;76.776;2024-03-02T00:58:40;92824.41;;;-7.93;79.34
84863;BME280;75117;43.224;76.776;2024-03-02T00:58:53;92826.53;;;-7.89;78.88
84863;BME280;75117;43.224;76.776;2024-03-02T00:59:05;92821.09;;;-7.93;79.06
84863;BME280;75117;43.224;76.776;2024-03-02T00:59:18;92800.84;;;-8.06;78.90
84863;BME280;75117;43.224;76.776;2024-03-02T00:59:30;92824.19;;;-7.91;78.70
84863;BME280;75117;43.224;76.776;2024-03-02T00:59:43;92819.53;;;-7.94;78.79
84863;BME280;75117;43.224;76.776;2024-03-02T00:59:58;92816.19;;;-7.95;79.46
84863;BME280;75117;43.224;76.776;2024-03-02T01:00:11;92825.75;;;-7.90;78.59
84863;BME280;75117;43.224;76.776;2024-03-02T01:00:27;92822.63;;;-7.92;79.36
84863;BME280;75117;43.224;76.776;2024-03-02T01:00:39;92829.88;;;-7.89;78.09
84863;BME280;75117;43.224;76.776;2024-03-02T01:00:51;92830.66;;;-7.88;78.78
84863;BME280;75117;43.224;76.776;2024-03-02T01:01:04;92826.53;;;-7.89;78.84
84863;BME280;75117;43.224;76.776;2024-03-02T01:01:17;92823.41;;;-7.92;79.05
84863;BME280;75117;43.224;76.776;2024-03-02T01:01:29;92819.84;;;-7.91;78.69
84863;BME280;75117;43.224;76.776;2024-03-02T01:01:42;92825.75;;;-7.90;78.65
84863;BME280;75117;43.224;76.776;2024-03-02T01:01:55;92822.41;;;-7.91;79.37
84863;BME280;75117;43.224;76.776;2024-03-02T01:02:07;92820.31;;;-7.94;78.87
84863;BME280;75117;43.224;76.776;2024-03-02T01:02:19;92821.19;;;-7.88;79.00
84863;BME280;75117;43.224;76.776;2024-03-02T01:02:32;92827.31;;;-7.89;78.98
84863;BME280;75117;43.224;76.776;2024-03-02T01:02:44;92820.63;;;-7.90;78.36
84863;BME280;75117;43.224;76.776;2024-03-02T01:02:58;92835.19;;;-7.91;78.87
84863;BME280;75117;43.224;76.776;2024-03-02T01:03:10;92810.94;;;-8.00;79.46
84863;BME280;75117;43.224;76.776;2024-03-02T01:03:23;92825.75;;;-7.90;78.67
84863;BME280;75117;43.224;76.776;2024-03-02T01:03:36;92831.44;;;-7.88;78.68
84863;BME280;75117;43.224;76.776;2024-03-02T01:03:49;92832.88;;;-7.92;78.91
84863;BME280;75117;43.224;76.776;2024-03-02T01:04:02;92827.53;;;-7.91;78.74
84863;BME280;75117;43.224;76.776;2024-03-02T01:04:14;92824.84;;;-7.96;78.66
84863;BME280;75117;43.224;76.776;2024-03-02T01:04:27;92808.97;;;-8.09;78.75
84863;BME280;75117;43.224;76.776;2024-03-02T01:04:40;92838.56;;;-7.90;79.16
84863;BME280;75117;43.224;76.776;2024-03-02T01:04:52;92836.53;;;-7.88;79.70
84863;BME280;75117;43.224;76.776;2024-03-02T01:05:05;92840.91;;;-7.88;78.87
84863;BME280;75117;43.224;76.776;2024-03-02T01:05:17;92835.78;;;-7.88;78.96
84863;BME280;75117;43.224;76.776;2024-03-02T01:05:29;92838.34;;;-7.88;79.70
84863;BME280;75117;43.224;76.776;2024-03-02T01:05:43;92840.66;;;-7.87;79.31
84863;BME280;75117;43.224;76.776;2024-03-02T01:05:55;92843.22;;;-7.87;78.48
84863;BME280;75117;43.224;76.776;2024-03-02T01:06:07;92837.31;;;-7.87;79.00
84863;BME280;75117;43.224;76.776;2024-03-02T01:06:20;92834.22;;;-7.89;78.88
84863;BME280;75117;43.224;76.776;2024-03-02T01:06:35;92831.44;;;-7.88;79.23
84863;BME280;75117;43.224;76.776;2024-03-02T01:06:47;92837.31;;;-7.87;79.48
84863;BME280;75117;43.224;76.776;2024-03-02T01:07:00;92834.75;;;-7.87;78.70
84863;BME280;75117;43.224;76.776;2024-03-02T01:07:12;92843.22;;;-7.87;79.48
84863;BME280;75117;43.224;76.776;2024-03-02T01:07:25;92824.53;;;-7.87;79.52
84863;BME280;75117;43.224;76.776;2024-03-02T01:07:38;92818.06;;;-7.90;79.00
84863;BME280;75117;43.224;76.776;2024-03-02T01:07:51;92807.63;;;-8.00;79.50
84863;BME280;75117;43.224;76.776;2024-03-02T01:08:03;92836.09;;;-7.85;78.77
84863;BME280;75117;43.224;76.776;2024-03-02T01:08:16;92824.06;;;-7.84;78.67
84863;BME280;75117;43.224;76.776;2024-03-02T01:08:28;92830.22;;;-7.85;78.14
84863;BME280;75117;43.224;76.776;2024-03-02T01:08:41;92821.63;;;-7.91;78.74
84863;BME280;75117;43.224;76.776;2024-03-02T01:08:54;92828.41;;;-7.85;79.66
84863;BME280;75117;43.224;76.776;2024-03-02T01:09:06;92827.06;;;-7.87;79.23
84863;BME280;75117;43.224;76.776;2024-03-02T01:09:19;92825.28;;;-7.87;79.80
84863;BME280;75117;43.224;76.776;2024-03-02T01:09:31;92832.97;;;-7.87;79.64
84863;BME280;75117;43.224;76.776;2024-03-02T01:09:43;92829.41;;;-7.86;79.80
84863;BME280;75117;43.224;76.776;2024-03-02T01:09:56;92824.28;;;-7.86;78.67
84863;BME280;75117;43.224;76.776;2024-03-02T01:10:09;92826.84;;;-7.86;79.15
84863;BME280;75117;43.224;76.776;2024-03-02T01:10:22;92827.66;;;-7.85;78.94
84863;BME280;75117;43.224;76.776;2024-03-02T01:10:35;92825.53;;;-7.88;78.51
84863;BME280;75117;43.224;76.776;2024-03-02T01:10:47;92825.84;;;-7.85;78.79
84863;BME280;75117;43.224;76.776;2024-03-02T01:10:59;92830.75;;;-7.83;78.75
84863;BME280;75117;43.224;76.776;2024-03-02T01:11:12;92827.66;;;-7.85;79.07
84863;BME280;75117;43.224;76.776;2024-03-02T01:11:25;92826.31;;;-7.88;79.20
84863;BME280;75117;43.224;76.776;2024-03-02T01:11:37;92799.63;;;-8.04;79.82
84863;BME280;75117;43.224;76.776;2024-03-02T01:11:49;92835.63;;;-7.82;78.87
84863;BME280;75117;43.224;76.776;2024-03-02T01:12:02;92820.41;;;-8.00;78.83
84863;BME280;75117;43.224;76.776;2024-03-02T01:12:14;92834.09;;;-7.83;79.63
84863;BME280;75117;43.224;76.776;2024-03-02T01:12:27;92841.78;;;-7.83;78.78
84863;BME280;75117;43.224;76.776;2024-03-02T01:12:39;92841.53;;;-7.81;78.84
84863;BME280;75117;43.224;76.776;2024-03-02T01:12:52;92842.78;;;-7.84;79.38
84863;BME280;75117;43.224;76.776;2024-03-02T01:13:04;92837.22;;;-7.81;78.79
84863;BME280;75117;43.224;76.776;2024-03-02T01:13:16;92840.31;;;-7.79;78.50
84863;BME280;75117;43.224;76.776;2024-03-02T01:13:29;92833.31;;;-7.83;79.47
84863;BME280;75117;43.224;76.776;2024-03-02T01:13:42;92833.31;;;-7.83;79.71
84863;BME280;75117;43.224;76.776;2024-03-02T01:13:54;92852.13;;;-7.78;79.24
84863;BME280;75117;43.224;76.776;2024-03-02T01:14:06;92852.88;;;-7.77;79.68
84863;BME280;75117;43.224;76.776;2024-03-02T01:14:19;92839.31;;;-7.78;78.97
84863;BME280;75117;43.224;76.776;2024-03-02T01:14:31;92836.53;;;-7.76;79.36
84863;BME280;75117;43.224;76.776;2024-03-02T01:14:44;92838.28;;;-7.77;78.93